Houn Maru — JG5489 — position and weather

sailwx.info

Track history (hours):
 
Tides and Currents Weather Stations Pressure Air Temp Water Temp Dewpoint Dewpoint Depression Visibility Wind Speed Wind Dir Waves Ship Positions

Houn Maru

Last reported at 2015-Apr-21 22:30 UTC. Time now 2015-Apr-21 23:31 UTC.
Position N 34°23' E 135°13'.

Length 91 m; draft 4.5 m.

Type: Tanker. MMSI: 431101172.

Date/timePositionNaut miles runAvg speedWind from/ knotsBaromVisibWave heightAir tempDewpointWater temp
2015-Apr-21 22:30N 34°23' E 135°13'0 0.1
2015-Apr-21 21:18N 34°23' E 135°13'0 0.0
2015-Apr-21 20:15N 34°23' E 135°13'0 0.0
2015-Apr-21 19:33N 34°23' E 135°13'0 0.0
2015-Apr-21 18:33N 34°23' E 135°13'0 0.0
2015-Apr-21 17:33N 34°23' E 135°13'0 0.0
2015-Apr-21 16:33N 34°23' E 135°13'0 0.0
2015-Apr-21 15:09N 34°23' E 135°13'0 0.0
2015-Apr-21 14:15N 34°23' E 135°13'0 0.0
2015-Apr-21 13:27N 34°23' E 135°13'6 6.3
2015-Apr-21 12:33N 34°28' E 135°08'1010.1
2015-Apr-21 11:33N 34°37' E 135°02'3 0.1
2015-Apr-20 06:29N 34°37' E 134°59'7 7.2
2015-Apr-20 05:33N 34°35' E 135°06'1111.4
2015-Apr-20 04:33N 34°24' E 135°11'3 0.6
2015-Apr-20 00:11N 34°25' E 135°14'2 3.7
2015-Apr-19 23:33N 34°23' E 135°13'0 0.0
2015-Apr-19 22:30N 34°23' E 135°13'0 0.0
2015-Apr-19 21:27N 34°23' E 135°13'0 0.0
2015-Apr-19 20:33N 34°23' E 135°13'0 0.0
2015-Apr-19 19:33N 34°23' E 135°13'0 0.0
2015-Apr-19 18:33N 34°23' E 135°13'0 0.0
2015-Apr-19 17:15N 34°23' E 135°13'0 0.1
2015-Apr-19 16:33N 34°23' E 135°13'6 6.3
2015-Apr-19 15:33N 34°27' E 135°06'1110.7
2015-Apr-19 14:33N 34°37' E 135°01'7 0.2
2015-Apr-18 01:24N 34°35' E 134°53'1011.9
2015-Apr-18 00:33N 34°36' E 135°05'1313.0
2015-Apr-17 23:33N 34°36' E 135°21'  
2015-Apr-15 07:03N 34°35' E 135°27'4 8.0
2015-Apr-15 06:33N 34°36' E 135°22'1212.2
2015-Apr-15 05:33N 34°27' E 135°13'2 2.3
2015-Apr-15 04:33N 34°25' E 135°14'0 0.0
2015-Apr-15 00:06N 34°25' E 135°14'2 3.3
2015-Apr-14 23:28N 34°23' E 135°12'0 0.1
2015-Apr-14 22:30N 34°23' E 135°12'0 0.1
2015-Apr-14 21:30N 34°24' E 135°12'0 0.0
2015-Apr-14 20:30N 34°24' E 135°12'0 0.0
2015-Apr-14 19:33N 34°24' E 135°12'0 0.0
2015-Apr-14 18:33N 34°24' E 135°12'0 0.0
2015-Apr-14 17:33N 34°24' E 135°12'0 0.1
2015-Apr-14 16:24N 34°23' E 135°12'0 0.1
2015-Apr-14 15:33N 34°23' E 135°12'0 0.3
2015-Apr-14 14:33N 34°24' E 135°12'1211.5
2015-Apr-14 13:33N 34°33' E 135°05'9 0.3
2015-Apr-13 10:33N 34°37' E 134°55'1110.6
2015-Apr-13 09:32N 34°32' E 135°07'10 9.9
2015-Apr-13 08:33N 34°25' E 135°14'0 0.3
2015-Apr-13 07:29N 34°25' E 135°14'0 0.1
2015-Apr-13 04:32N 34°25' E 135°14'2 2.2
2015-Apr-13 03:33N 34°23' E 135°12'0 0.0
2015-Apr-13 02:33N 34°23' E 135°12'0 0.0
2015-Apr-13 01:33N 34°23' E 135°12'0 0.0
2015-Apr-13 00:33N 34°23' E 135°12'0 0.0
2015-Apr-12 23:33N 34°23' E 135°12'0 0.0
2015-Apr-12 22:33N 34°23' E 135°12'0 0.0
2015-Apr-12 21:21N 34°23' E 135°12'0 0.1
2015-Apr-12 20:33N 34°23' E 135°12'0 0.1
2015-Apr-12 19:33N 34°23' E 135°12'0 0.0
2015-Apr-12 18:33N 34°23' E 135°12'0 0.0
2015-Apr-12 17:30N 34°24' E 135°12'0 0.0
2015-Apr-12 16:33N 34°24' E 135°12'0 0.0
2015-Apr-12 15:33N 34°23' E 135°12'0 0.0
2015-Apr-12 14:33N 34°24' E 135°12'0 0.0
2015-Apr-12 13:33N 34°24' E 135°12'10 9.6
2015-Apr-12 12:33N 34°31' E 135°06'1010.2
2015-Apr-12 11:33N 34°35' E 134°54'  
Track history (hours):
 
Tides and Currents Weather Stations Pressure Air Temp Water Temp Dewpoint Dewpoint Depression Visibility Wind Speed Wind Dir Waves Ship Positions

Houn Maru

Last reported at 2015-Apr-21 22:30 UTC. Time now 2015-Apr-21 23:31 UTC.
Position N 34°23' E 135°13'.

Length 91 m; draft 4.5 m.

Type: Tanker. MMSI: 431101172.

Date/timePositionNaut miles runAvg speedWind from/ knotsBaromVisibWave heightAir tempDewpointWater temp
2015-Apr-21 22:30N 34°23' E 135°13'0 0.1
2015-Apr-21 21:18N 34°23' E 135°13'0 0.0
2015-Apr-21 20:15N 34°23' E 135°13'0 0.0
2015-Apr-21 19:33N 34°23' E 135°13'0 0.0
2015-Apr-21 18:33N 34°23' E 135°13'0 0.0
2015-Apr-21 17:33N 34°23' E 135°13'0 0.0
2015-Apr-21 16:33N 34°23' E 135°13'0 0.0
2015-Apr-21 15:09N 34°23' E 135°13'0 0.0
2015-Apr-21 14:15N 34°23' E 135°13'0 0.0
2015-Apr-21 13:27N 34°23' E 135°13'6 6.3
2015-Apr-21 12:33N 34°28' E 135°08'1010.1
2015-Apr-21 11:33N 34°37' E 135°02'3 0.1
2015-Apr-20 06:29N 34°37' E 134°59'7 7.2
2015-Apr-20 05:33N 34°35' E 135°06'1111.4
2015-Apr-20 04:33N 34°24' E 135°11'3 0.6
2015-Apr-20 00:11N 34°25' E 135°14'2 3.7
2015-Apr-19 23:33N 34°23' E 135°13'0 0.0
2015-Apr-19 22:30N 34°23' E 135°13'0 0.0
2015-Apr-19 21:27N 34°23' E 135°13'0 0.0
2015-Apr-19 20:33N 34°23' E 135°13'0 0.0
2015-Apr-19 19:33N 34°23' E 135°13'0 0.0
2015-Apr-19 18:33N 34°23' E 135°13'0 0.0
2015-Apr-19 17:15N 34°23' E 135°13'0 0.1
2015-Apr-19 16:33N 34°23' E 135°13'6 6.3
2015-Apr-19 15:33N 34°27' E 135°06'1110.7
2015-Apr-19 14:33N 34°37' E 135°01'7 0.2
2015-Apr-18 01:24N 34°35' E 134°53'1011.9
2015-Apr-18 00:33N 34°36' E 135°05'1313.0
2015-Apr-17 23:33N 34°36' E 135°21'  
2015-Apr-15 07:03N 34°35' E 135°27'4 8.0
2015-Apr-15 06:33N 34°36' E 135°22'1212.2
2015-Apr-15 05:33N 34°27' E 135°13'2 2.3
2015-Apr-15 04:33N 34°25' E 135°14'0 0.0
2015-Apr-15 00:06N 34°25' E 135°14'2 3.3
2015-Apr-14 23:28N 34°23' E 135°12'0 0.1
2015-Apr-14 22:30N 34°23' E 135°12'0 0.1
2015-Apr-14 21:30N 34°24' E 135°12'0 0.0
2015-Apr-14 20:30N 34°24' E 135°12'0 0.0
2015-Apr-14 19:33N 34°24' E 135°12'0 0.0
2015-Apr-14 18:33N 34°24' E 135°12'0 0.0
2015-Apr-14 17:33N 34°24' E 135°12'0 0.1
2015-Apr-14 16:24N 34°23' E 135°12'0 0.1
2015-Apr-14 15:33N 34°23' E 135°12'0 0.3
2015-Apr-14 14:33N 34°24' E 135°12'1211.5
2015-Apr-14 13:33N 34°33' E 135°05'9 0.3
2015-Apr-13 10:33N 34°37' E 134°55'1110.6
2015-Apr-13 09:32N 34°32' E 135°07'10 9.9
2015-Apr-13 08:33N 34°25' E 135°14'0 0.3
2015-Apr-13 07:29N 34°25' E 135°14'0 0.1
2015-Apr-13 04:32N 34°25' E 135°14'2 2.2
2015-Apr-13 03:33N 34°23' E 135°12'0 0.0
2015-Apr-13 02:33N 34°23' E 135°12'0 0.0
2015-Apr-13 01:33N 34°23' E 135°12'0 0.0
2015-Apr-13 00:33N 34°23' E 135°12'0 0.0
2015-Apr-12 23:33N 34°23' E 135°12'0 0.0
2015-Apr-12 22:33N 34°23' E 135°12'0 0.0
2015-Apr-12 21:21N 34°23' E 135°12'0 0.1
2015-Apr-12 20:33N 34°23' E 135°12'0 0.1
2015-Apr-12 19:33N 34°23' E 135°12'0 0.0
2015-Apr-12 18:33N 34°23' E 135°12'0 0.0
2015-Apr-12 17:30N 34°24' E 135°12'0 0.0
2015-Apr-12 16:33N 34°24' E 135°12'0 0.0
2015-Apr-12 15:33N 34°23' E 135°12'0 0.0
2015-Apr-12 14:33N 34°24' E 135°12'0 0.0
2015-Apr-12 13:33N 34°24' E 135°12'10 9.6
2015-Apr-12 12:33N 34°31' E 135°06'1010.2
2015-Apr-12 11:33N 34°35' E 134°54'  

Dump ship's entire track history